createdAt,value
2023-03-03T00:01:46.040Z,36.30
2023-03-03T00:04:14.998Z,34.77
2023-03-03T00:06:41.672Z,29.10
2023-03-03T00:09:08.405Z,29.67
2023-03-03T00:11:34.981Z,29.13
2023-03-03T00:14:01.760Z,31.37
2023-03-03T00:16:30.048Z,29.00
2023-03-03T00:19:01.224Z,28.07
2023-03-03T00:21:32.201Z,29.77
2023-03-03T00:24:16.504Z,32.87
2023-03-03T00:26:50.386Z,33.57
2023-03-03T00:29:27.942Z,32.10
2023-03-03T00:31:55.069Z,30.63
2023-03-03T00:34:27.202Z,33.13
2023-03-03T00:36:59.740Z,31.50
2023-03-03T00:39:31.015Z,34.60
2023-03-03T00:41:59.766Z,35.10
2023-03-03T00:44:45.470Z,32.63
2023-03-03T00:47:38.342Z,34.80
2023-03-03T00:50:08.018Z,37.47
2023-03-03T00:52:39.954Z,32.70
2023-03-03T00:55:08.039Z,34.27
2023-03-03T00:57:34.820Z,30.87
2023-03-03T01:00:01.435Z,27.07
2023-03-03T01:02:28.200Z,31.13
2023-03-03T01:04:57.871Z,29.97
2023-03-03T01:07:26.726Z,33.63
2023-03-03T01:09:56.402Z,25.33
2023-03-03T01:12:26.162Z,27.17
2023-03-03T01:14:54.866Z,26.57
2023-03-03T01:17:24.177Z,30.53
2023-03-03T01:19:50.812Z,28.00
2023-03-03T01:22:19.708Z,28.73
2023-03-03T01:24:47.782Z,30.47
2023-03-03T01:27:14.369Z,37.13
2023-03-03T01:29:40.974Z,28.73
2023-03-03T01:32:12.388Z,28.90
2023-03-03T01:34:39.025Z,21.40
2023-03-03T01:37:08.294Z,28.00
2023-03-03T01:39:36.324Z,24.50
2023-03-03T01:42:06.137Z,25.47
2023-03-03T01:44:34.460Z,26.23
2023-03-03T01:47:06.244Z,26.00
2023-03-03T01:49:39.443Z,25.33
2023-03-03T01:52:14.917Z,31.53
2023-03-03T01:54:50.656Z,26.87
2023-03-03T01:57:25.421Z,25.40
2023-03-03T01:59:53.693Z,24.37
2023-03-03T02:02:23.028Z,26.00
2023-03-03T02:04:50.463Z,17.80
2023-03-03T02:07:24.402Z,18.77
2023-03-03T02:09:59.817Z,21.80
2023-03-03T02:12:33.736Z,29.93
2023-03-03T02:15:02.697Z,30.50
2023-03-03T02:17:29.383Z,25.27
2023-03-03T02:20:12.717Z,33.80
2023-03-03T02:22:55.481Z,23.33
2023-03-03T02:26:11.515Z,31.00
2023-03-03T02:28:39.539Z,26.67
2023-03-03T02:31:13.683Z,26.80
2023-03-03T02:33:45.333Z,33.47
2023-03-03T02:36:21.513Z,30.90
2023-03-03T02:39:16.233Z,33.93
2023-03-03T02:42:12.172Z,29.00
2023-03-03T02:44:39.173Z,26.90
2023-03-03T02:47:05.853Z,34.07
2023-03-03T02:49:36.679Z,31.03
2023-03-03T02:52:05.884Z,31.40
2023-03-03T02:54:33.279Z,35.83
2023-03-03T02:57:03.840Z,30.20
2023-03-03T02:59:30.681Z,34.03
2023-03-03T03:02:00.208Z,34.27
2023-03-03T03:04:29.423Z,33.27
2023-03-03T03:06:56.896Z,33.23
2023-03-03T03:09:25.435Z,26.60
2023-03-03T03:11:52.607Z,20.20
2023-03-03T03:14:19.313Z,26.33
2023-03-03T03:16:46.012Z,32.27
2023-03-03T03:19:13.024Z,29.90
2023-03-03T03:21:39.674Z,34.27
2023-03-03T03:24:06.859Z,25.13
2023-03-03T03:26:33.504Z,26.73
2023-03-03T03:29:02.289Z,16.47
2023-03-03T03:31:28.984Z,26.30
2023-03-03T03:33:55.648Z,27.73
2023-03-03T03:36:22.422Z,20.40
2023-03-03T03:38:49.092Z,22.70
2023-03-03T03:41:15.777Z,30.93
2023-03-03T03:43:42.481Z,26.83
2023-03-03T03:46:11.731Z,32.20
2023-03-03T03:48:38.438Z,28.53
2023-03-03T03:51:05.386Z,27.43
2023-03-03T03:53:32.449Z,29.10
2023-03-03T03:55:59.207Z,16.23
2023-03-03T03:58:26.218Z,24.90
2023-03-03T04:00:52.989Z,29.63
2023-03-03T04:03:20.320Z,27.13
2023-03-03T04:05:51.118Z,24.03
2023-03-03T04:08:17.706Z,28.47
2023-03-03T04:10:44.327Z,25.77
2023-03-03T04:13:13.370Z,28.90
2023-03-03T04:15:40.003Z,29.30
2023-03-03T04:18:09.277Z,33.07
2023-03-03T04:20:38.032Z,28.90
2023-03-03T04:23:04.590Z,26.73
2023-03-03T04:25:33.453Z,27.03
2023-03-03T04:28:00.191Z,25.27
2023-03-03T04:30:29.163Z,31.07
2023-03-03T04:32:55.833Z,28.73
2023-03-03T04:35:22.626Z,26.20
2023-03-03T04:37:49.272Z,24.37
2023-03-03T04:40:17.351Z,27.03
2023-03-03T04:42:44.084Z,24.70
2023-03-03T04:45:11.299Z,23.37
2023-03-03T04:47:38.209Z,19.90
2023-03-03T04:50:05.296Z,24.87
2023-03-03T04:52:31.964Z,21.60
2023-03-03T04:54:58.789Z,28.23
2023-03-03T04:57:25.568Z,25.37
2023-03-03T04:59:52.180Z,30.93
2023-03-03T05:02:21.485Z,29.93
2023-03-03T05:04:53.223Z,24.67
2023-03-03T05:07:20.959Z,27.83
2023-03-03T05:09:47.638Z,24.17
2023-03-03T05:12:17.359Z,27.27
2023-03-03T05:14:46.401Z,24.07
2023-03-03T05:17:13.035Z,25.53
2023-03-03T05:19:39.796Z,25.70
2023-03-03T05:22:06.662Z,22.17
2023-03-03T05:24:33.334Z,24.03
2023-03-03T05:26:59.959Z,23.03
2023-03-03T05:29:27.150Z,29.50
2023-03-03T05:31:53.710Z,27.50
2023-03-03T05:34:20.333Z,25.30
2023-03-03T05:36:49.074Z,25.30
2023-03-03T05:39:16.037Z,23.73
2023-03-03T05:41:42.640Z,29.07
2023-03-03T05:44:11.655Z,23.83
2023-03-03T05:46:40.805Z,30.03
2023-03-03T05:49:07.433Z,30.73
2023-03-03T05:51:36.515Z,24.77
2023-03-03T05:54:03.198Z,24.87
2023-03-03T05:56:32.143Z,25.53
2023-03-03T05:58:58.694Z,30.00
2023-03-03T06:01:25.428Z,26.90
2023-03-03T06:03:54.406Z,32.67
2023-03-03T06:06:21.020Z,25.50
2023-03-03T06:08:50.248Z,22.37
2023-03-03T06:11:19.521Z,26.70
2023-03-03T06:13:46.314Z,26.07
2023-03-03T06:16:15.413Z,26.57
2023-03-03T06:18:42.093Z,28.33
2023-03-03T06:21:08.653Z,27.23
2023-03-03T06:23:35.343Z,30.83
2023-03-03T06:26:02.068Z,28.40
2023-03-03T06:28:28.730Z,33.80
2023-03-03T06:30:56.491Z,28.87
2023-03-03T06:33:25.621Z,31.33
2023-03-03T06:35:56.196Z,30.23
2023-03-03T06:38:22.973Z,31.37
2023-03-03T06:40:49.676Z,35.80
2023-03-03T06:43:16.489Z,31.80
2023-03-03T06:45:49.190Z,34.23
2023-03-03T06:48:15.867Z,31.53
2023-03-03T06:50:42.604Z,32.70
2023-03-03T06:53:18.137Z,31.27
2023-03-03T06:55:45.910Z,30.70
2023-03-03T06:58:19.297Z,28.77
2023-03-03T07:01:00.336Z,31.40
2023-03-03T07:04:06.515Z,31.17
2023-03-03T07:06:40.926Z,19.10
2023-03-03T07:09:38.875Z,29.17
2023-03-03T07:12:20.167Z,27.40
2023-03-03T07:14:55.395Z,25.37
2023-03-03T07:17:25.318Z,30.87
2023-03-03T07:19:52.953Z,25.83
2023-03-03T07:22:25.897Z,26.67
2023-03-03T07:25:00.750Z,25.77
2023-03-03T07:27:32.946Z,27.93
2023-03-03T07:30:25.168Z,25.57
2023-03-03T07:32:57.536Z,17.23
2023-03-03T07:35:43.695Z,27.43
2023-03-03T07:38:31.029Z,19.83
2023-03-03T07:41:17.522Z,22.27
2023-03-03T07:43:50.931Z,19.47
2023-03-03T07:46:25.644Z,27.43
2023-03-03T07:48:52.821Z,25.23
2023-03-03T07:51:28.249Z,24.50
2023-03-03T07:54:29.149Z,29.80
2023-03-03T07:57:04.622Z,22.63
2023-03-03T07:59:37.113Z,24.03
2023-03-03T08:02:13.822Z,23.53
2023-03-03T08:04:54.867Z,25.40
2023-03-03T08:07:23.732Z,24.17
2023-03-03T08:09:54.694Z,20.37
2023-03-03T08:12:42.910Z,29.20
2023-03-03T08:15:19.407Z,31.30
2023-03-03T08:17:47.466Z,28.98
2023-03-03T08:20:29.245Z,26.30
2023-03-03T08:22:55.951Z,26.37
2023-03-03T08:25:24.827Z,27.07
2023-03-03T08:27:51.502Z,24.43
2023-03-03T08:30:20.340Z,24.33
2023-03-03T08:32:46.955Z,20.17
2023-03-03T08:35:13.635Z,21.20
2023-03-03T08:37:44.713Z,24.37
2023-03-03T08:40:15.419Z,33.35
2023-03-03T08:42:42.054Z,27.98
2023-03-03T08:45:08.995Z,18.57
2023-03-03T08:47:35.732Z,20.80
2023-03-03T08:50:07.425Z,16.50
2023-03-03T08:52:34.445Z,8.73
2023-03-03T08:55:01.037Z,20.45
2023-03-03T08:57:27.920Z,24.87
2023-03-03T08:59:54.464Z,15.90
2023-03-03T09:02:21.067Z,21.23
2023-03-03T09:04:47.626Z,16.30
2023-03-03T09:07:16.723Z,16.03
2023-03-03T09:09:43.335Z,16.27
2023-03-03T09:12:19.606Z,15.27
2023-03-03T09:14:47.397Z,16.37
2023-03-03T09:17:35.709Z,15.87
2023-03-03T09:20:22.543Z,18.13
2023-03-03T09:22:50.406Z,18.17
2023-03-03T09:25:43.173Z,12.20
2023-03-03T09:28:24.582Z,14.97
2023-03-03T09:30:54.556Z,12.87
2023-03-03T09:33:39.983Z,12.30
2023-03-03T09:36:31.579Z,18.53
2023-03-03T09:39:00.081Z,18.20
2023-03-03T09:41:41.557Z,13.30
2023-03-03T09:44:12.186Z,10.03
2023-03-03T09:46:50.727Z,9.70
2023-03-03T09:49:43.712Z,12.23
2023-03-03T09:52:22.612Z,11.30
2023-03-03T09:55:15.498Z,9.77
2023-03-03T09:58:13.594Z,9.93
2023-03-03T10:01:10.792Z,14.77
2023-03-03T10:04:00.631Z,14.07
2023-03-03T10:06:55.094Z,7.90
2023-03-03T10:09:33.859Z,8.73
2023-03-03T10:12:38.835Z,6.60
2023-03-03T10:15:25.576Z,12.63
2023-03-03T10:17:56.485Z,14.53
2023-03-03T10:20:57.258Z,13.33
2023-03-03T10:23:35.676Z,11.47
2023-03-03T10:26:16.492Z,10.20
2023-03-03T10:29:22.061Z,10.10
2023-03-03T10:31:57.703Z,11.23
2023-03-03T10:34:27.411Z,14.20
2023-03-03T10:37:18.113Z,12.63
2023-03-03T10:39:57.415Z,10.67
2023-03-03T10:42:36.179Z,12.03
2023-03-03T10:45:30.400Z,13.33
2023-03-03T10:48:12.255Z,11.03
2023-03-03T10:50:50.540Z,12.43
2023-03-03T10:53:55.917Z,12.60
2023-03-03T10:56:52.420Z,11.97
2023-03-03T10:59:31.692Z,7.83
2023-03-03T11:02:02.150Z,9.70
2023-03-03T11:04:53.688Z,10.87
2023-03-03T11:07:40.698Z,11.20
2023-03-03T11:10:14.730Z,12.60
2023-03-03T11:13:25.699Z,14.53
2023-03-03T11:16:18.252Z,13.53
2023-03-03T11:19:02.608Z,9.13
2023-03-03T11:21:47.046Z,11.23
2023-03-03T11:24:38.158Z,14.43
2023-03-03T11:27:40.009Z,12.13
2023-03-03T11:30:12.307Z,10.75
2023-03-03T11:32:56.736Z,9.82
2023-03-03T11:35:36.811Z,13.02
2023-03-03T11:38:12.346Z,10.30
2023-03-03T11:41:03.031Z,10.10
2023-03-03T11:43:38.072Z,10.18
2023-03-03T11:46:11.961Z,8.25
2023-03-03T11:48:42.406Z,8.93
2023-03-03T11:51:19.774Z,10.40
2023-03-03T11:54:11.151Z,12.10
2023-03-03T11:56:44.560Z,8.93
2023-03-03T11:59:20.660Z,10.93
2023-03-03T12:01:55.184Z,12.05
2023-03-03T12:04:32.189Z,10.40
2023-03-03T12:07:22.751Z,10.43
2023-03-03T12:10:09.321Z,8.88
2023-03-03T12:13:02.125Z,12.63
2023-03-03T12:15:51.568Z,11.07
2023-03-03T12:18:28.079Z,10.25
2023-03-03T12:20:56.902Z,10.82
2023-03-03T12:24:00.687Z,12.45
2023-03-03T12:26:39.833Z,10.48
2023-03-03T12:29:38.755Z,5.88
2023-03-03T12:32:21.542Z,6.88
2023-03-03T12:34:59.896Z,7.78
2023-03-03T12:37:36.096Z,5.95
2023-03-03T12:40:07.525Z,6.00
2023-03-03T12:42:46.085Z,8.23
2023-03-03T12:45:36.019Z,14.27
2023-03-03T12:48:27.645Z,12.50
2023-03-03T12:51:14.533Z,8.95
2023-03-03T12:53:53.243Z,7.47
2023-03-03T12:56:46.279Z,4.95
2023-03-03T12:59:50.968Z,11.55
2023-03-03T13:02:35.145Z,7.22
2023-03-03T13:05:43.517Z,5.65
2023-03-03T13:08:31.391Z,7.00
2023-03-03T13:11:16.382Z,6.10
2023-03-03T13:13:55.811Z,5.88
2023-03-03T13:16:40.632Z,5.93
2023-03-03T13:19:46.082Z,10.15
2023-03-03T13:22:43.433Z,7.13
2023-03-03T13:25:28.735Z,6.55
2023-03-03T13:28:04.057Z,7.30
2023-03-03T13:30:35.508Z,6.75
2023-03-03T13:33:11.166Z,8.43
2023-03-03T13:35:59.295Z,7.03
2023-03-03T13:38:33.640Z,6.38
2023-03-03T13:41:09.931Z,6.82
2023-03-03T13:43:48.366Z,5.18
2023-03-03T13:46:51.600Z,10.18
2023-03-03T13:49:27.258Z,8.80
2023-03-03T13:52:07.391Z,7.50
2023-03-03T13:54:55.801Z,7.18
2023-03-03T13:57:41.675Z,11.70
2023-03-03T14:00:33.199Z,12.98
2023-03-03T14:03:05.758Z,10.25
2023-03-03T14:05:45.292Z,7.18
2023-03-03T14:08:20.432Z,7.23
2023-03-03T14:11:11.827Z,8.25
2023-03-03T14:13:50.977Z,7.60
2023-03-03T14:16:40.775Z,7.15
2023-03-03T14:19:43.255Z,11.05
2023-03-03T14:22:15.898Z,7.85
2023-03-03T14:25:01.256Z,7.25
2023-03-03T14:27:35.489Z,7.78
2023-03-03T14:30:35.208Z,6.35
2023-03-03T14:33:09.545Z,4.93
2023-03-03T14:35:40.802Z,7.00
2023-03-03T14:38:10.327Z,5.75
2023-03-03T14:40:39.303Z,8.07
2023-03-03T14:43:21.904Z,8.80
2023-03-03T14:45:48.740Z,6.65
2023-03-03T14:48:18.262Z,7.10
2023-03-03T14:51:04.694Z,6.10
2023-03-03T14:53:39.138Z,5.35
2023-03-03T14:56:28.807Z,9.40
2023-03-03T14:59:16.697Z,5.53
2023-03-03T15:01:43.570Z,8.30
2023-03-03T15:04:16.271Z,8.00
2023-03-03T15:06:48.939Z,8.00
2023-03-03T15:09:26.913Z,6.55
2023-03-03T15:11:55.611Z,5.55
2023-03-03T15:14:45.547Z,4.88
2023-03-03T15:17:26.702Z,6.45
2023-03-03T15:20:18.109Z,4.22
2023-03-03T15:23:19.617Z,3.50
2023-03-03T15:25:54.590Z,6.95
2023-03-03T15:28:47.446Z,3.35
2023-03-03T15:31:32.900Z,5.05
2023-03-03T15:34:25.167Z,5.03
2023-03-03T15:37:05.423Z,4.55
2023-03-03T15:39:50.739Z,3.92
2023-03-03T15:42:35.957Z,2.63
2023-03-03T15:45:08.693Z,2.53
2023-03-03T15:48:05.227Z,10.20
2023-03-03T15:50:45.587Z,4.70
2023-03-03T15:53:39.517Z,6.80
2023-03-03T15:56:24.101Z,8.52
2023-03-03T15:59:29.521Z,4.03
2023-03-03T16:02:11.253Z,3.35
2023-03-03T16:04:45.910Z,4.32
2023-03-03T16:07:34.386Z,5.38
2023-03-03T16:10:19.561Z,9.43
2023-03-03T16:13:12.823Z,4.60
2023-03-03T16:16:00.637Z,5.50
2023-03-03T16:18:36.373Z,4.75
2023-03-03T16:21:48.090Z,3.33
2023-03-03T16:24:26.926Z,3.08
2023-03-03T16:27:09.917Z,6.33
2023-03-03T16:30:06.063Z,4.75
2023-03-03T16:32:44.293Z,5.47
2023-03-03T16:35:17.791Z,4.20
2023-03-03T16:37:57.266Z,3.88
2023-03-03T16:40:33.188Z,8.07
2023-03-03T16:43:03.689Z,4.63
2023-03-03T16:45:39.292Z,6.40
2023-03-03T16:48:15.134Z,6.10
2023-03-03T16:51:05.824Z,3.22
2023-03-03T16:53:32.430Z,6.10
2023-03-03T16:56:01.973Z,6.78
2023-03-03T16:58:43.809Z,8.48
2023-03-03T17:01:22.806Z,10.18
2023-03-03T17:03:59.839Z,6.95
2023-03-03T17:06:41.387Z,4.13
2023-03-03T17:09:07.910Z,3.10
2023-03-03T17:12:18.929Z,4.72
2023-03-03T17:15:03.742Z,2.95
2023-03-03T17:17:55.373Z,7.68
2023-03-03T17:20:33.666Z,18.73
2023-03-03T17:23:03.096Z,5.30
2023-03-03T17:25:58.839Z,2.88
2023-03-03T17:28:48.506Z,8.90
2023-03-03T17:31:33.490Z,4.55
2023-03-03T17:34:38.500Z,4.78
2023-03-03T17:37:13.054Z,7.35
2023-03-03T17:39:56.458Z,2.95
2023-03-03T17:42:47.699Z,5.13
2023-03-03T17:45:16.415Z,3.85
2023-03-03T17:48:07.980Z,6.55
2023-03-03T17:50:37.510Z,5.15
2023-03-03T17:53:30.155Z,3.50
2023-03-03T17:56:27.534Z,5.45
2023-03-03T17:59:03.236Z,7.35
2023-03-03T18:01:40.844Z,4.18
2023-03-03T18:04:27.634Z,3.92
2023-03-03T18:07:16.893Z,2.65
2023-03-03T18:10:12.751Z,3.83
2023-03-03T18:12:59.324Z,2.88
2023-03-03T18:16:01.833Z,2.60
2023-03-03T18:19:03.685Z,2.58
2023-03-03T18:21:48.393Z,3.50
2023-03-03T18:24:38.402Z,5.10
2023-03-03T18:27:16.553Z,5.38
2023-03-03T18:30:18.564Z,11.07
2023-03-03T18:33:01.271Z,5.03
2023-03-03T18:35:31.329Z,4.30
2023-03-03T18:37:58.078Z,5.78
2023-03-03T18:40:34.912Z,5.60
2023-03-03T18:43:39.953Z,4.70
2023-03-03T18:46:29.304Z,3.15
2023-03-03T18:49:04.948Z,5.10
2023-03-03T18:51:34.333Z,6.28
2023-03-03T18:54:26.371Z,4.47
2023-03-03T18:56:52.862Z,5.88
2023-03-03T18:59:31.726Z,6.05
2023-03-03T19:02:13.794Z,6.47
2023-03-03T19:05:08.866Z,8.93
2023-03-03T19:07:59.928Z,7.33
2023-03-03T19:10:52.498Z,7.68
2023-03-03T19:13:34.174Z,5.53
2023-03-03T19:16:22.445Z,4.90
2023-03-03T19:18:59.715Z,7.60
2023-03-03T19:21:38.263Z,9.95
2023-03-03T19:24:25.877Z,11.70
2023-03-03T19:27:01.597Z,11.68
2023-03-03T19:29:46.376Z,9.10
2023-03-03T19:32:16.156Z,3.05
2023-03-03T19:34:58.071Z,9.02
2023-03-03T19:37:44.445Z,8.27
2023-03-03T19:40:39.002Z,4.68
2023-03-03T19:43:20.766Z,4.25
2023-03-03T19:46:15.352Z,4.68
2023-03-03T19:48:54.726Z,7.30
2023-03-03T19:51:40.688Z,6.80
2023-03-03T19:54:35.236Z,7.28
2023-03-03T19:57:05.841Z,8.65
2023-03-03T20:00:17.555Z,11.48
2023-03-03T20:03:05.755Z,8.52
2023-03-03T20:06:05.450Z,5.32
2023-03-03T20:08:41.397Z,7.38
2023-03-03T20:11:20.288Z,7.32
2023-03-03T20:14:19.330Z,9.45
2023-03-03T20:16:48.282Z,10.70
2023-03-03T20:19:45.816Z,10.77
2023-03-03T20:22:28.199Z,8.32
2023-03-03T20:25:25.212Z,10.30
2023-03-03T20:28:00.681Z,7.85
2023-03-03T20:31:14.773Z,6.82
2023-03-03T20:33:44.155Z,10.45
2023-03-03T20:36:31.310Z,11.47
2023-03-03T20:39:21.120Z,9.53
2023-03-03T20:42:31.833Z,10.93
2023-03-03T20:45:06.777Z,9.70
2023-03-03T20:48:07.211Z,14.10
2023-03-03T20:50:52.525Z,13.02
2023-03-03T20:53:57.288Z,19.83
2023-03-03T20:56:51.622Z,16.00
2023-03-03T20:59:25.631Z,13.02
2023-03-03T21:02:29.888Z,12.93
2023-03-03T21:05:14.247Z,17.38
2023-03-03T21:07:55.022Z,14.90
2023-03-03T21:10:26.993Z,13.10
2023-03-03T21:12:59.121Z,11.88
2023-03-03T21:15:27.453Z,14.93
2023-03-03T21:17:55.326Z,12.48
2023-03-03T21:20:33.657Z,12.13
2023-03-03T21:23:01.956Z,10.48
2023-03-03T21:25:40.912Z,14.88
2023-03-03T21:28:24.702Z,20.98
2023-03-03T21:31:10.775Z,14.70
2023-03-03T21:34:01.647Z,11.20
2023-03-03T21:36:37.181Z,18.38
2023-03-03T21:39:23.305Z,10.55
2023-03-03T21:41:55.451Z,21.08
2023-03-03T21:44:34.833Z,14.35
2023-03-03T21:47:02.382Z,17.92
2023-03-03T21:49:29.237Z,12.25
2023-03-03T21:51:57.004Z,19.95
2023-03-03T21:54:24.382Z,21.00
2023-03-03T21:56:51.546Z,21.23
2023-03-03T21:59:20.763Z,20.75
2023-03-03T22:01:47.414Z,18.40
2023-03-03T22:04:16.674Z,18.38
2023-03-03T22:06:45.958Z,17.60
2023-03-03T22:09:15.610Z,21.27
2023-03-03T22:11:42.312Z,17.33
2023-03-03T22:14:11.328Z,12.00
2023-03-03T22:16:40.182Z,16.10
2023-03-03T22:19:09.213Z,12.77
2023-03-03T22:21:36.681Z,14.73
2023-03-03T22:24:03.849Z,22.00
2023-03-03T22:26:30.472Z,15.27
2023-03-03T22:28:59.651Z,20.08
2023-03-03T22:31:26.417Z,16.95
2023-03-03T22:33:53.112Z,11.70
2023-03-03T22:36:22.202Z,15.40
2023-03-03T22:38:51.795Z,11.98
2023-03-03T22:41:18.805Z,17.63
2023-03-03T22:43:45.743Z,13.68
2023-03-03T22:46:12.623Z,9.98
2023-03-03T22:48:41.237Z,15.43
2023-03-03T22:51:07.854Z,23.90
2023-03-03T22:53:36.776Z,23.98
2023-03-03T22:56:03.586Z,9.32
2023-03-03T22:58:30.966Z,19.35
2023-03-03T23:00:57.721Z,12.52
2023-03-03T23:03:25.168Z,17.73
2023-03-03T23:05:52.248Z,20.02
2023-03-03T23:08:20.262Z,11.57
2023-03-03T23:10:47.106Z,13.70
2023-03-03T23:13:14.383Z,13.23
2023-03-03T23:15:41.065Z,14.40
2023-03-03T23:18:07.879Z,15.48
2023-03-03T23:20:34.816Z,10.85
2023-03-03T23:23:01.518Z,13.45
2023-03-03T23:25:28.924Z,16.65
2023-03-03T23:27:56.375Z,16.42
2023-03-03T23:30:23.644Z,13.23
2023-03-03T23:32:50.982Z,13.80
2023-03-03T23:35:17.709Z,11.88
2023-03-03T23:37:45.056Z,19.58
2023-03-03T23:40:12.844Z,12.00
2023-03-03T23:42:39.598Z,14.57
2023-03-03T23:45:06.913Z,13.93
2023-03-03T23:47:35.636Z,14.93
2023-03-03T23:50:02.310Z,18.92
2023-03-03T23:52:30.933Z,16.67
2023-03-03T23:54:57.604Z,17.67
2023-03-03T23:57:24.182Z,16.52
2023-03-03T23:59:50.871Z,17.67
